Time,TemperatureF,DewpointF,PressureIn,WindDirection,WindDirectionDegrees,WindSpeedMPH,WindSpeedGustMPH,Humidity,HourlyPrecipIn,Conditions,Clouds,dailyrainin,SoftwareType,DateUTC
2013-02-27 00:00:00,75.0,67.3,30.00,West,271,0.0,0.0,77,0.00,,---,0.00,VWS V14.01,2013-02-27 05:00:00,
2013-02-27 00:01:00,75.0,66.9,30.00,West,262,0.0,0.0,76,0.00,,---,0.00,VWS V14.01,2013-02-27 05:01:00,
2013-02-27 00:02:00,75.0,66.9,30.00,WSW,244,0.0,0.0,76,0.00,,---,0.00,VWS V14.01,2013-02-27 05:02:00,
2013-02-27 00:03:00,75.0,66.9,30.00,SW,231,0.0,0.0,76,0.00,,---,0.00,VWS V14.01,2013-02-27 05:03:00,
2013-02-27 00:04:00,75.2,66.7,30.00,South,183,0.0,4.9,75,0.00,,---,0.00,VWS V14.01,2013-02-27 05:04:00,
2013-02-27 00:05:00,75.2,66.7,30.00,South,186,0.0,0.0,75,0.00,,---,0.00,VWS V14.01,2013-02-27 05:05:00,
2013-02-27 00:06:00,75.2,66.7,30.00,South,186,0.0,0.0,75,0.00,,---,0.00,VWS V14.01,2013-02-27 05:06:00,
2013-02-27 00:07:00,75.2,66.3,30.00,SSW,206,0.0,0.0,74,0.00,,---,0.00,VWS V14.01,2013-02-27 05:07:00,
2013-02-27 00:08:00,75.2,66.3,30.00,SSW,200,0.0,0.0,74,0.00,,---,0.00,VWS V14.01,2013-02-27 05:08:00,
2013-02-27 00:09:00,75.2,66.3,30.00,SSW,210,0.0,0.0,74,0.00,,---,0.00,VWS V14.01,2013-02-27 05:09:00,
2013-02-27 00:10:00,75.2,66.3,30.00,NW,305,2.7,2.7,74,0.00,,---,0.00,VWS V14.01,2013-02-27 05:10:00,
2013-02-27 00:11:00,75.2,66.3,30.00,NW,305,2.7,2.7,74,0.00,,---,0.00,VWS V14.01,2013-02-27 05:11:00,
2013-02-27 00:12:00,75.2,66.3,30.00,WSW,237,0.0,0.0,74,0.00,,---,0.00,VWS V14.01,2013-02-27 05:12:00,
2013-02-27 00:13:00,75.2,66.3,30.00,WSW,237,0.0,0.0,74,0.00,,---,0.00,VWS V14.01,2013-02-27 05:13:00,
2013-02-27 00:14:00,75.2,66.3,30.00,WSW,237,0.0,0.0,74,0.00,,---,0.00,VWS V14.01,2013-02-27 05:14:00,
2013-02-27 00:15:00,75.4,66.5,30.00,NNW,345,0.0,0.0,74,0.00,,---,0.00,VWS V14.01,2013-02-27 05:15:00,
2013-02-27 00:16:00,75.4,66.5,30.00,SSW,209,2.7,2.7,74,0.00,,---,0.00,VWS V14.01,2013-02-27 05:16:00,
2013-02-27 00:17:00,75.4,66.5,30.00,West,266,0.0,0.0,74,0.00,,---,0.00,VWS V14.01,2013-02-27 05:17:00,
2013-02-27 00:18:00,75.4,66.1,30.00,West,268,0.0,0.0,73,0.00,,---,0.00,VWS V14.01,2013-02-27 05:18:00,
2013-02-27 00:19:00,75.4,66.1,30.00,West,268,0.0,0.0,73,0.00,,---,0.00,VWS V14.01,2013-02-27 05:19:00,
2013-02-27 00:20:00,75.4,66.1,30.00,SSW,196,0.0,0.0,73,0.00,,---,0.00,VWS V14.01,2013-02-27 05:20:00,
2013-02-27 00:21:00,75.2,66.3,30.00,SE,140,0.0,0.0,74,0.00,,---,0.00,VWS V14.01,2013-02-27 05:21:00,
2013-02-27 00:22:00,75.2,66.3,30.00,SE,140,0.0,0.0,74,0.00,,---,0.00,VWS V14.01,2013-02-27 05:22:00,
2013-02-27 00:23:00,75.0,66.6,30.00,SE,140,0.0,0.0,75,0.00,,---,0.00,VWS V14.01,2013-02-27 05:23:00,
2013-02-27 00:24:00,75.0,66.6,30.00,SE,140,0.0,0.0,75,0.00,,---,0.00,VWS V14.01,2013-02-27 05:24:00,
2013-02-27 00:25:00,75.0,66.9,30.00,SE,140,0.0,0.0,76,0.00,,---,0.00,VWS V14.01,2013-02-27 05:25:00,
2013-02-27 00:26:00,74.8,66.8,30.00,South,176,3.6,3.6,76,0.00,,---,0.00,VWS V14.01,2013-02-27 05:26:00,
2013-02-27 00:27:00,74.8,66.8,30.00,NW,318,0.0,0.0,76,0.00,,---,0.00,VWS V14.01,2013-02-27 05:27:00,
2013-02-27 00:28:00,74.8,66.8,30.00,NW,318,0.0,0.0,76,0.00,,---,0.00,VWS V14.01,2013-02-27 05:28:00,
2013-02-27 00:29:00,74.8,67.2,30.00,NW,318,0.0,0.0,77,0.00,,---,0.00,VWS V14.01,2013-02-27 05:29:00,
2013-02-27 00:30:00,74.8,67.2,30.00,NW,317,0.0,0.0,77,0.00,,---,0.00,VWS V14.01,2013-02-27 05:30:00,
2013-02-27 00:31:00,74.8,67.2,30.00,WSW,248,0.0,0.0,77,0.00,,---,0.00,VWS V14.01,2013-02-27 05:31:00,
2013-02-27 00:32:00,74.8,67.5,30.00,WSW,248,0.0,0.0,78,0.00,,---,0.00,VWS V14.01,2013-02-27 05:32:00,
2013-02-27 00:33:00,74.8,67.5,30.00,WSW,248,0.0,0.0,78,0.00,,---,0.00,VWS V14.01,2013-02-27 05:33:00,
2013-02-27 00:34:00,74.8,67.5,30.00,SW,233,0.0,0.0,78,0.00,,---,0.00,VWS V14.01,2013-02-27 05:34:00,
2013-02-27 00:35:00,74.8,67.2,30.00,SW,233,0.0,0.0,77,0.00,,---,0.00,VWS V14.01,2013-02-27 05:35:00,
2013-02-27 00:36:00,74.8,67.5,30.00,West,275,0.0,0.0,78,0.00,,---,0.00,VWS V14.01,2013-02-27 05:36:00,
2013-02-27 00:37:00,74.8,67.5,30.00,SSE,166,0.0,0.0,78,0.00,,---,0.00,VWS V14.01,2013-02-27 05:37:00,
2013-02-27 00:38:00,74.7,67.3,30.00,South,174,0.0,0.0,78,0.00,,---,0.00,VWS V14.01,2013-02-27 05:38:00,
2013-02-27 00:39:00,74.7,67.3,30.00,South,174,0.0,0.0,78,0.00,,---,0.00,VWS V14.01,2013-02-27 05:39:00,
2013-02-27 00:40:00,74.7,67.3,30.00,WSW,255,0.0,0.0,78,0.00,,---,0.00,VWS V14.01,2013-02-27 05:40:00,
2013-02-27 00:41:00,74.7,67.7,30.00,WSW,254,0.0,0.0,79,0.00,,---,0.00,VWS V14.01,2013-02-27 05:41:00,
2013-02-27 00:42:00,74.7,67.7,30.00,WSW,254,0.0,0.0,79,0.00,,---,0.00,VWS V14.01,2013-02-27 05:42:00,
2013-02-27 00:43:00,74.8,67.5,30.00,SSW,204,2.7,2.7,78,0.00,,---,0.00,VWS V14.01,2013-02-27 05:43:00,
2013-02-27 00:44:00,74.8,67.5,30.00,West,276,0.0,0.0,78,0.00,,---,0.00,VWS V14.01,2013-02-27 05:44:00,
2013-02-27 00:45:00,74.8,67.5,30.00,West,276,0.0,0.0,78,0.00,,---,0.00,VWS V14.01,2013-02-27 05:45:00,
2013-02-27 00:46:00,74.8,67.5,30.00,West,276,0.0,0.0,78,0.00,,---,0.00,VWS V14.01,2013-02-27 05:46:00,
2013-02-27 00:47:00,75.0,67.3,30.00,WNW,294,0.0,0.0,77,0.00,,---,0.00,VWS V14.01,2013-02-27 05:47:00,
2013-02-27 00:48:00,74.8,67.2,30.00,NNW,329,0.0,0.0,77,0.00,,---,0.00,VWS V14.01,2013-02-27 05:48:00,
2013-02-27 00:49:00,74.8,67.2,30.00,WSW,241,2.2,2.2,77,0.00,,---,0.00,VWS V14.01,2013-02-27 05:49:00,
2013-02-27 00:50:00,74.8,67.2,30.00,WSW,241,2.2,2.2,77,0.00,,---,0.00,VWS V14.01,2013-02-27 05:50:00,
2013-02-27 00:51:00,74.8,67.2,30.00,WSW,241,2.2,2.2,77,0.00,,---,0.00,VWS V14.01,2013-02-27 05:51:00,
2013-02-27 00:52:00,74.8,67.2,30.00,WSW,240,0.0,2.2,77,0.00,,---,0.00,VWS V14.01,2013-02-27 05:52:00,
2013-02-27 00:53:00,74.8,67.2,30.00,WSW,240,0.0,0.0,77,0.00,,---,0.00,VWS V14.01,2013-02-27 05:53:00,
2013-02-27 00:54:00,74.8,67.2,30.00,SSW,199,0.0,0.0,77,0.00,,---,0.00,VWS V14.01,2013-02-27 05:54:00,
2013-02-27 00:55:00,74.8,67.2,30.00,West,262,0.0,0.0,77,0.00,,---,0.00,VWS V14.01,2013-02-27 05:55:00,
2013-02-27 00:56:00,74.8,67.2,30.00,WNW,286,0.0,0.0,77,0.00,,---,0.00,VWS V14.01,2013-02-27 05:56:00,
2013-02-27 00:57:00,74.7,67.0,30.00,North,1,0.0,0.0,77,0.00,,---,0.00,VWS V14.01,2013-02-27 05:57:00,
2013-02-27 00:58:00,74.7,67.0,30.00,SSW,212,3.6,3.6,77,0.00,,---,0.00,VWS V14.01,2013-02-27 05:58:00,
2013-02-27 00:59:00,74.7,67.3,30.00,SSW,192,0.0,3.6,78,0.00,,---,0.00,VWS V14.01,2013-02-27 05:59:00,
2013-02-27 01:00:00,74.7,67.3,30.00,WSW,250,0.0,0.0,78,0.00,,---,0.00,VWS V14.01,2013-02-27 06:00:00,
2013-02-27 01:01:00,74.5,67.2,30.00,SW,224,0.0,0.0,78,0.00,,---,0.00,VWS V14.01,2013-02-27 06:01:00,
2013-02-27 01:02:00,74.5,67.6,30.00,SSW,206,0.0,2.2,79,0.00,,---,0.00,VWS V14.01,2013-02-27 06:02:00,
2013-02-27 01:03:00,74.5,67.6,30.00,SSW,206,0.0,0.0,79,0.00,,---,0.00,VWS V14.01,2013-02-27 06:03:00,
2013-02-27 01:04:00,74.5,67.6,30.00,SSW,206,0.0,0.0,79,0.00,,---,0.00,VWS V14.01,2013-02-27 06:04:00,
2013-02-27 01:05:00,74.5,67.6,30.00,SSW,206,2.7,2.7,79,0.00,,---,0.00,VWS V14.01,2013-02-27 06:05:00,
2013-02-27 01:06:00,74.5,67.6,30.00,SW,234,2.2,4.0,79,0.00,,---,0.00,VWS V14.01,2013-02-27 06:06:00,
2013-02-27 01:07:00,74.5,67.6,30.00,SSW,198,0.0,2.2,79,0.00,,---,0.00,VWS V14.01,2013-02-27 06:07:00,
2013-02-27 01:08:00,74.5,67.6,30.00,SSW,198,0.0,0.0,79,0.00,,---,0.00,VWS V14.01,2013-02-27 06:08:00,
2013-02-27 01:09:00,74.5,67.6,30.00,SW,216,0.0,0.0,79,0.00,,---,0.00,VWS V14.01,2013-02-27 06:09:00,
2013-02-27 01:10:00,74.5,67.9,30.00,SW,216,0.0,0.0,80,0.00,,---,0.00,VWS V14.01,2013-02-27 06:10:00,
2013-02-27 01:11:00,74.3,67.7,30.00,SW,216,0.0,0.0,80,0.00,,---,0.00,VWS V14.01,2013-02-27 06:11:00,
2013-02-27 01:12:00,74.3,67.7,30.00,West,278,0.0,0.0,80,0.00,,---,0.00,VWS V14.01,2013-02-27 06:12:00,
2013-02-27 01:13:00,74.3,67.7,30.00,SW,231,2.2,2.2,80,0.00,,---,0.00,VWS V14.01,2013-02-27 06:13:00,
2013-02-27 01:14:00,74.3,67.7,30.00,SSW,207,2.7,2.7,80,0.00,,---,0.00,VWS V14.01,2013-02-27 06:14:00,
2013-02-27 01:15:00,74.3,67.7,30.00,SW,231,0.0,2.7,80,0.00,,---,0.00,VWS V14.01,2013-02-27 06:15:00,
2013-02-27 01:16:00,74.3,67.7,30.00,SSW,194,0.0,0.0,80,0.00,,---,0.00,VWS V14.01,2013-02-27 06:16:00,
2013-02-27 01:17:00,74.3,68.1,30.00,SSW,196,0.0,0.0,81,0.00,,---,0.00,VWS V14.01,2013-02-27 06:17:00,
2013-02-27 01:18:00,74.1,67.9,30.00,West,280,3.1,3.1,81,0.00,,---,0.00,VWS V14.01,2013-02-27 06:18:00,
2013-02-27 01:19:00,74.1,67.9,30.00,SW,235,0.0,3.1,81,0.00,,---,0.00,VWS V14.01,2013-02-27 06:19:00,
2013-02-27 01:20:00,74.1,67.9,30.00,SW,235,0.0,0.0,81,0.00,,---,0.00,VWS V14.01,2013-02-27 06:20:00,
2013-02-27 01:21:00,73.9,67.8,30.00,SW,222,0.0,0.0,81,0.00,,---,0.00,VWS V14.01,2013-02-27 06:21:00,
2013-02-27 01:22:00,73.9,67.8,30.00,South,188,0.0,0.0,81,0.00,,---,0.00,VWS V14.01,2013-02-27 06:22:00,
2013-02-27 01:23:00,73.9,67.8,30.00,South,188,0.0,0.0,81,0.00,,---,0.00,VWS V14.01,2013-02-27 06:23:00,
2013-02-27 01:24:00,73.9,68.1,30.00,South,188,0.0,0.0,82,0.00,,---,0.00,VWS V14.01,2013-02-27 06:24:00,
2013-02-27 01:25:00,73.8,67.9,30.00,South,188,0.0,0.0,82,0.00,,---,0.00,VWS V14.01,2013-02-27 06:25:00,
2013-02-27 01:26:00,73.6,67.8,30.00,South,188,0.0,0.0,82,0.00,,---,0.00,VWS V14.01,2013-02-27 06:26:00,
2013-02-27 01:27:00,73.6,67.8,30.00,South,188,0.0,0.0,82,0.00,,---,0.00,VWS V14.01,2013-02-27 06:27:00,
2013-02-27 01:28:00,73.6,67.8,30.00,SSW,195,5.4,5.4,82,0.00,,---,0.00,VWS V14.01,2013-02-27 06:28:00,
2013-02-27 01:29:00,73.6,68.1,30.00,SSW,194,0.0,5.4,83,0.00,,---,0.00,VWS V14.01,2013-02-27 06:29:00,
2013-02-27 01:30:00,73.6,68.1,30.00,SSW,194,0.0,0.0,83,0.00,,---,0.00,VWS V14.01,2013-02-27 06:30:00,
2013-02-27 01:31:00,73.6,68.4,30.00,SSW,198,0.0,0.0,84,0.00,,---,0.00,VWS V14.01,2013-02-27 06:31:00,
2013-02-27 01:32:00,73.4,68.3,30.00,West,281,2.7,2.7,84,0.00,,---,0.00,VWS V14.01,2013-02-27 06:32:00,
2013-02-27 01:33:00,73.4,68.3,30.00,WSW,251,4.5,4.5,84,0.00,,---,0.00,VWS V14.01,2013-02-27 06:33:00,
2013-02-27 01:34:00,73.4,68.6,30.00,WSW,239,3.1,4.5,85,0.00,,---,0.00,VWS V14.01,2013-02-27 06:34:00,
2013-02-27 01:35:00,73.4,68.6,30.00,WSW,240,0.0,3.1,85,0.00,,---,0.00,VWS V14.01,2013-02-27 06:35:00,
2013-02-27 01:36:00,73.2,68.4,30.00,WSW,239,0.0,0.0,85,0.00,,---,0.00,VWS V14.01,2013-02-27 06:36:00,
2013-02-27 01:37:00,73.2,68.4,30.00,WSW,250,3.1,3.1,85,0.00,,---,0.00,VWS V14.01,2013-02-27 06:37:00,
2013-02-27 01:38:00,73.2,69.1,30.00,WSW,256,0.0,3.1,87,0.00,,---,0.00,VWS V14.01,2013-02-27 06:38:00,
2013-02-27 01:39:00,73.2,69.1,30.00,WSW,255,0.0,3.1,87,0.00,,---,0.00,VWS V14.01,2013-02-27 06:39:00,
2013-02-27 01:40:00,73.2,69.1,30.00,WSW,256,0.0,0.0,87,0.00,,---,0.00,VWS V14.01,2013-02-27 06:40:00,
2013-02-27 01:41:00,73.2,69.1,30.00,WSW,255,0.0,0.0,87,0.00,,---,0.00,VWS V14.01,2013-02-27 06:41:00,
2013-02-27 01:42:00,73.2,69.1,30.00,SSW,211,2.7,2.7,87,0.00,,---,0.00,VWS V14.01,2013-02-27 06:42:00,
2013-02-27 01:43:00,73.2,69.1,30.00,SW,224,4.9,4.9,87,0.00,,---,0.00,VWS V14.01,2013-02-27 06:43:00,
2013-02-27 01:44:00,73.0,69.3,30.00,SW,224,4.9,4.9,88,0.00,,---,0.00,VWS V14.01,2013-02-27 06:44:00,
2013-02-27 01:45:00,73.0,69.3,30.00,WSW,243,0.0,4.9,88,0.00,,---,0.00,VWS V14.01,2013-02-27 06:45:00,
2013-02-27 01:46:00,73.0,69.3,30.00,SW,234,0.0,2.2,88,0.00,,---,0.00,VWS V14.01,2013-02-27 06:46:00,
2013-02-27 01:47:00,73.0,69.3,30.00,West,263,2.2,2.2,88,0.00,,---,0.00,VWS V14.01,2013-02-27 06:47:00,
2013-02-27 01:48:00,73.0,69.3,30.00,WSW,255,0.0,2.2,88,0.00,,---,0.00,VWS V14.01,2013-02-27 06:48:00,
2013-02-27 01:49:00,73.0,69.6,30.00,WSW,255,0.0,2.2,89,0.00,,---,0.00,VWS V14.01,2013-02-27 06:49:00,
2013-02-27 01:50:00,72.9,69.4,30.00,WSW,256,0.0,0.0,89,0.00,,---,0.00,VWS V14.01,2013-02-27 06:50:00,
2013-02-27 01:51:00,72.9,69.4,30.00,WSW,244,0.0,4.0,89,0.00,,---,0.00,VWS V14.01,2013-02-27 06:51:00,
2013-02-27 01:52:00,72.9,69.4,30.00,WSW,244,0.0,0.0,89,0.00,,---,0.00,VWS V14.01,2013-02-27 06:52:00,
2013-02-27 01:53:00,72.9,69.4,30.00,WSW,244,0.0,0.0,89,0.00,,---,0.00,VWS V14.01,2013-02-27 06:53:00,
2013-02-27 01:54:00,72.9,69.4,30.00,WSW,244,0.0,0.0,89,0.00,,---,0.00,VWS V14.01,2013-02-27 06:54:00,
2013-02-27 01:55:00,72.9,69.8,30.00,WSW,250,0.0,0.0,90,0.00,,---,0.00,VWS V14.01,2013-02-27 06:55:00,
2013-02-27 01:56:00,72.7,69.6,30.00,WSW,244,2.7,2.7,90,0.00,,---,0.00,VWS V14.01,2013-02-27 06:56:00,
2013-02-27 01:57:00,72.7,69.6,30.00,WSW,244,2.2,2.7,90,0.00,,---,0.00,VWS V14.01,2013-02-27 06:57:00,
2013-02-27 01:58:00,72.7,69.6,30.00,West,265,3.1,3.1,90,0.00,,---,0.00,VWS V14.01,2013-02-27 06:58:00,
2013-02-27 01:59:00,72.9,70.1,30.00,WSW,245,0.0,3.1,91,0.00,,---,0.00,VWS V14.01,2013-02-27 06:59:00,
2013-02-27 02:00:00,72.7,69.9,30.00,WSW,245,0.0,0.0,91,0.00,,---,0.00,VWS V14.01,2013-02-27 07:00:00,
2013-02-27 02:01:00,72.7,69.9,30.00,WSW,245,0.0,0.0,91,0.00,,---,0.00,VWS V14.01,2013-02-27 07:01:00,
2013-02-27 02:02:00,72.9,70.1,30.00,SW,235,0.0,0.0,91,0.00,,---,0.00,VWS V14.01,2013-02-27 07:02:00,
2013-02-27 02:03:00,72.9,70.1,30.00,WSW,238,0.0,3.1,91,0.00,,---,0.00,VWS V14.01,2013-02-27 07:03:00,
2013-02-27 02:04:00,72.9,70.1,30.00,WSW,238,0.0,0.0,91,0.00,,---,0.00,VWS V14.01,2013-02-27 07:04:00,
2013-02-27 02:05:00,72.9,70.1,30.00,WSW,238,0.0,2.7,91,0.00,,---,0.00,VWS V14.01,2013-02-27 07:05:00,
2013-02-27 02:06:00,72.9,70.4,30.00,West,259,3.6,3.6,92,0.00,,---,0.00,VWS V14.01,2013-02-27 07:06:00,
2013-02-27 02:07:00,72.9,70.4,30.00,WSW,247,4.9,4.9,92,0.00,,---,0.00,VWS V14.01,2013-02-27 07:07:00,
2013-02-27 02:08:00,73.0,70.6,30.00,WSW,249,3.1,4.9,92,0.00,,---,0.00,VWS V14.01,2013-02-27 07:08:00,
2013-02-27 02:09:00,73.0,70.6,30.00,WSW,246,0.0,3.6,92,0.00,,---,0.00,VWS V14.01,2013-02-27 07:09:00,
2013-02-27 02:10:00,73.0,70.9,30.00,WSW,246,0.0,0.0,93,0.00,,---,0.00,VWS V14.01,2013-02-27 07:10:00,
2013-02-27 02:11:00,73.0,70.9,30.00,SW,234,3.1,4.0,93,0.00,,---,0.00,VWS V14.01,2013-02-27 07:11:00,
2013-02-27 02:12:00,73.2,71.1,30.00,WSW,237,3.1,3.1,93,0.00,,---,0.00,VWS V14.01,2013-02-27 07:12:00,
2013-02-27 02:13:00,73.2,71.1,30.00,WSW,239,3.1,4.9,93,0.00,,---,0.00,VWS V14.01,2013-02-27 07:13:00,
2013-02-27 02:14:00,73.4,71.6,30.00,WSW,249,4.0,4.0,94,0.00,,---,0.00,VWS V14.01,2013-02-27 07:14:00,
2013-02-27 02:15:00,73.4,71.6,30.00,WSW,245,2.7,4.0,94,0.00,,---,0.00,VWS V14.01,2013-02-27 07:15:00,
2013-02-27 02:16:00,73.4,71.6,30.00,WSW,245,0.0,2.7,94,0.00,,---,0.00,VWS V14.01,2013-02-27 07:16:00,
2013-02-27 02:17:00,73.4,71.6,30.00,WSW,245,0.0,0.0,94,0.00,,---,0.00,VWS V14.01,2013-02-27 07:17:00,
2013-02-27 02:18:00,73.0,71.2,30.00,WSW,245,0.0,0.0,94,0.00,,---,0.00,VWS V14.01,2013-02-27 07:18:00,
2013-02-27 02:19:00,73.0,71.2,30.00,WSW,245,0.0,0.0,94,0.00,,---,0.00,VWS V14.01,2013-02-27 07:19:00,
2013-02-27 02:20:00,73.0,71.2,30.00,WSW,245,0.0,0.0,94,0.00,,---,0.00,VWS V14.01,2013-02-27 07:20:00,
2013-02-27 02:21:00,73.0,71.2,30.00,WSW,245,0.0,0.0,94,0.00,,---,0.00,VWS V14.01,2013-02-27 07:21:00,
2013-02-27 02:22:00,73.0,71.2,30.00,SSW,210,4.0,4.0,94,0.00,,---,0.00,VWS V14.01,2013-02-27 07:22:00,
2013-02-27 02:23:00,72.9,71.0,30.00,WSW,251,0.0,4.0,94,0.00,,---,0.00,VWS V14.01,2013-02-27 07:23:00,
2013-02-27 02:24:00,72.9,71.0,30.00,West,268,2.2,2.2,94,0.00,,---,0.00,VWS V14.01,2013-02-27 07:24:00,
2013-02-27 02:25:00,72.9,71.0,30.00,WSW,239,0.0,2.2,94,0.00,,---,0.00,VWS V14.01,2013-02-27 07:25:00,
2013-02-27 02:26:00,72.9,71.0,30.00,WSW,248,0.0,2.2,94,0.00,,---,0.00,VWS V14.01,2013-02-27 07:26:00,
2013-02-27 02:27:00,72.9,71.0,30.00,WSW,243,4.0,4.0,94,0.00,,---,0.00,VWS V14.01,2013-02-27 07:27:00,
2013-02-27 02:28:00,72.9,71.0,30.00,WSW,243,0.0,4.0,94,0.00,,---,0.00,VWS V14.01,2013-02-27 07:28:00,
2013-02-27 02:29:00,72.9,71.0,30.00,SW,234,0.0,3.6,94,0.00,,---,0.00,VWS V14.01,2013-02-27 07:29:00,
2013-02-27 02:30:00,72.9,71.0,30.00,WSW,239,0.0,3.6,94,0.00,,---,0.00,VWS V14.01,2013-02-27 07:30:00,
2013-02-27 02:31:00,73.0,71.2,30.00,WSW,239,0.0,0.0,94,0.00,,---,0.00,VWS V14.01,2013-02-27 07:31:00,
2013-02-27 02:32:00,73.0,71.2,30.00,WSW,239,0.0,0.0,94,0.00,,---,0.00,VWS V14.01,2013-02-27 07:32:00,
2013-02-27 02:33:00,73.0,71.5,30.00,WSW,241,0.0,0.0,95,0.00,,---,0.00,VWS V14.01,2013-02-27 07:33:00,
2013-02-27 02:34:00,73.0,71.5,30.00,West,261,2.7,2.7,95,0.00,,---,0.00,VWS V14.01,2013-02-27 07:34:00,
2013-02-27 02:35:00,73.0,71.5,30.00,WSW,247,2.7,2.7,95,0.00,,---,0.00,VWS V14.01,2013-02-27 07:35:00,
2013-02-27 02:36:00,73.0,71.5,30.00,WSW,248,2.7,2.7,95,0.00,,---,0.00,VWS V14.01,2013-02-27 07:36:00,
2013-02-27 02:37:00,73.0,71.5,30.00,WSW,246,3.6,3.6,95,0.00,,---,0.00,VWS V14.01,2013-02-27 07:37:00,
2013-02-27 02:38:00,73.0,71.5,30.00,WSW,249,2.7,3.6,95,0.00,,---,0.00,VWS V14.01,2013-02-27 07:38:00,
2013-02-27 02:39:00,73.0,71.5,30.00,SW,228,0.0,4.0,95,0.00,,---,0.00,VWS V14.01,2013-02-27 07:39:00,
2013-02-27 02:40:00,73.0,71.5,30.00,WSW,241,2.2,4.0,95,0.00,,---,0.00,VWS V14.01,2013-02-27 07:40:00,
2013-02-27 02:41:00,73.0,71.5,30.00,SW,236,0.0,2.2,95,0.00,,---,0.00,VWS V14.01,2013-02-27 07:41:00,
2013-02-27 02:42:00,73.0,71.5,30.00,WSW,253,0.0,0.0,95,0.00,,---,0.00,VWS V14.01,2013-02-27 07:42:00,
2013-02-27 02:43:00,73.2,71.7,30.00,WSW,242,4.0,4.0,95,0.00,,---,0.00,VWS V14.01,2013-02-27 07:43:00,
2013-02-27 02:44:00,73.0,71.5,30.00,WNW,286,0.0,0.0,95,0.00,,---,0.00,VWS V14.01,2013-02-27 07:44:00,
2013-02-27 02:45:00,73.2,71.7,30.00,WNW,286,0.0,0.0,95,0.00,,---,0.00,VWS V14.01,2013-02-27 07:45:00,
2013-02-27 02:46:00,73.2,71.7,30.00,West,272,0.0,0.0,95,0.00,,---,0.00,VWS V14.01,2013-02-27 07:46:00,
2013-02-27 02:47:00,73.0,71.5,30.00,WSW,247,2.2,2.7,95,0.00,,---,0.00,VWS V14.01,2013-02-27 07:47:00,
2013-02-27 02:48:00,73.0,71.5,30.00,WSW,242,2.7,3.1,95,0.00,,---,0.00,VWS V14.01,2013-02-27 07:48:00,
2013-02-27 02:49:00,73.0,71.5,30.00,WSW,243,0.0,0.0,95,0.00,,---,0.00,VWS V14.01,2013-02-27 07:49:00,
2013-02-27 02:50:00,73.0,71.5,30.00,WSW,243,0.0,0.0,95,0.00,,---,0.00,VWS V14.01,2013-02-27 07:50:00,
2013-02-27 02:51:00,73.0,71.5,30.00,WSW,253,0.0,0.0,95,0.00,,---,0.00,VWS V14.01,2013-02-27 07:51:00,
2013-02-27 02:52:00,73.0,71.5,30.00,WSW,257,0.0,0.0,95,0.00,,---,0.00,VWS V14.01,2013-02-27 07:52:00,
2013-02-27 02:53:00,72.9,71.3,30.00,WSW,241,3.6,3.6,95,0.00,,---,0.00,VWS V14.01,2013-02-27 07:53:00,
2013-02-27 02:54:00,72.9,71.3,30.00,SW,235,3.6,3.6,95,0.00,,---,0.00,VWS V14.01,2013-02-27 07:54:00,
2013-02-27 02:55:00,72.9,71.3,30.00,SW,235,3.6,3.6,95,0.00,,---,0.00,VWS V14.01,2013-02-27 07:55:00,
2013-02-27 02:56:00,72.9,71.3,30.00,WSW,250,0.0,3.6,95,0.00,,---,0.00,VWS V14.01,2013-02-27 07:56:00,
2013-02-27 02:57:00,73.0,71.5,30.00,WSW,256,4.0,4.0,95,0.00,,---,0.00,VWS V14.01,2013-02-27 07:57:00,
2013-02-27 02:58:00,73.0,71.5,30.00,SW,235,3.1,4.0,95,0.00,,---,0.00,VWS V14.01,2013-02-27 07:58:00,
2013-02-27 02:59:00,73.0,71.5,30.00,SW,233,0.0,3.6,95,0.00,,---,0.00,VWS V14.01,2013-02-27 07:59:00,
2013-02-27 03:00:00,73.0,71.5,30.00,SW,233,0.0,3.6,95,0.00,,---,0.00,VWS V14.01,2013-02-27 08:00:00,
2013-02-27 03:01:00,73.0,71.5,30.00,WSW,241,3.1,3.1,95,0.00,,---,0.00,VWS V14.01,2013-02-27 08:01:00,
2013-02-27 03:02:00,73.0,71.5,30.00,WSW,243,0.0,4.0,95,0.00,,---,0.00,VWS V14.01,2013-02-27 08:02:00,
2013-02-27 03:03:00,73.0,71.5,30.00,WSW,241,0.0,0.0,95,0.00,,---,0.00,VWS V14.01,2013-02-27 08:03:00,
2013-02-27 03:04:00,73.0,71.5,30.00,WSW,239,2.2,2.2,95,0.00,,---,0.00,VWS V14.01,2013-02-27 08:04:00,
2013-02-27 03:05:00,73.0,71.5,30.00,WSW,239,2.2,2.2,95,0.00,,---,0.00,VWS V14.01,2013-02-27 08:05:00,
2013-02-27 03:06:00,73.0,71.5,30.00,WSW,255,2.7,2.7,95,0.00,,---,0.00,VWS V14.01,2013-02-27 08:06:00,
2013-02-27 03:07:00,73.2,71.7,30.00,SW,232,2.7,2.7,95,0.00,,---,0.00,VWS V14.01,2013-02-27 08:07:00,
2013-02-27 03:08:00,73.2,71.7,30.00,WSW,248,2.7,2.7,95,0.00,,---,0.00,VWS V14.01,2013-02-27 08:08:00,
2013-02-27 03:09:00,73.2,71.7,30.00,SW,226,4.0,4.0,95,0.00,,---,0.00,VWS V14.01,2013-02-27 08:09:00,
2013-02-27 03:10:00,73.2,71.7,30.00,SW,226,4.0,4.0,95,0.00,,---,0.00,VWS V14.01,2013-02-27 08:10:00,
2013-02-27 03:11:00,73.2,71.7,30.00,SW,236,0.0,0.0,95,0.00,,---,0.00,VWS V14.01,2013-02-27 08:11:00,
2013-02-27 03:12:00,73.2,71.7,30.00,West,262,4.0,4.9,95,0.00,,---,0.00,VWS V14.01,2013-02-27 08:12:00,
2013-02-27 03:13:00,73.2,71.7,30.00,West,277,0.0,4.0,95,0.00,,---,0.00,VWS V14.01,2013-02-27 08:13:00,
2013-02-27 03:14:00,73.2,71.7,30.00,WSW,253,4.0,4.0,95,0.00,,---,0.00,VWS V14.01,2013-02-27 08:14:00,
2013-02-27 03:15:00,73.2,71.7,30.00,WSW,253,0.0,0.0,95,0.00,,---,0.00,VWS V14.01,2013-02-27 08:15:00,
2013-02-27 03:16:00,73.2,71.7,30.00,WSW,253,3.1,3.1,95,0.00,,---,0.00,VWS V14.01,2013-02-27 08:16:00,
2013-02-27 03:17:00,73.2,71.7,30.00,WSW,237,3.6,3.6,95,0.00,,---,0.00,VWS V14.01,2013-02-27 08:17:00,
2013-02-27 03:18:00,73.2,71.7,30.00,SW,223,2.2,4.0,95,0.00,,---,0.00,VWS V14.01,2013-02-27 08:18:00,
2013-02-27 03:19:00,73.2,71.7,30.00,SW,223,2.2,2.2,95,0.00,,---,0.00,VWS V14.01,2013-02-27 08:19:00,
2013-02-27 03:20:00,73.2,71.7,30.00,West,277,0.0,0.0,95,0.00,,---,0.00,VWS V14.01,2013-02-27 08:20:00,
2013-02-27 03:21:00,73.2,71.7,30.00,West,277,0.0,0.0,95,0.00,,---,0.00,VWS V14.01,2013-02-27 08:21:00,
2013-02-27 03:22:00,73.2,71.7,30.00,WNW,285,3.1,3.1,95,0.00,,---,0.00,VWS V14.01,2013-02-27 08:22:00,
2013-02-27 03:23:00,73.2,71.7,30.00,West,271,0.0,3.1,95,0.00,,---,0.00,VWS V14.01,2013-02-27 08:23:00,
2013-02-27 03:24:00,73.2,71.7,30.00,WSW,251,3.1,3.1,95,0.00,,---,0.00,VWS V14.01,2013-02-27 08:24:00,
2013-02-27 03:25:00,73.2,71.7,30.00,West,263,2.2,2.2,95,0.00,,---,0.00,VWS V14.01,2013-02-27 08:25:00,
2013-02-27 03:26:00,73.2,71.7,30.00,WSW,255,2.7,2.7,95,0.00,,---,0.00,VWS V14.01,2013-02-27 08:26:00,
2013-02-27 03:27:00,73.2,71.7,30.00,West,263,0.0,2.7,95,0.00,,---,0.00,VWS V14.01,2013-02-27 08:27:00,
2013-02-27 03:28:00,73.2,71.7,30.00,West,265,4.0,4.0,95,0.00,,---,0.00,VWS V14.01,2013-02-27 08:28:00,
2013-02-27 03:29:00,73.2,71.7,30.00,West,261,3.6,5.8,95,0.00,,---,0.00,VWS V14.01,2013-02-27 08:29:00,
2013-02-27 03:30:00,73.2,71.7,30.00,West,276,2.2,2.2,95,0.00,,---,0.00,VWS V14.01,2013-02-27 08:30:00,
2013-02-27 03:31:00,73.0,71.5,30.00,West,277,2.7,2.7,95,0.00,,---,0.00,VWS V14.01,2013-02-27 08:31:00,
2013-02-27 03:32:00,73.0,71.5,30.00,West,260,2.7,2.7,95,0.00,,---,0.00,VWS V14.01,2013-02-27 08:32:00,
2013-02-27 03:33:00,73.0,71.5,30.00,WSW,240,0.0,2.7,95,0.00,,---,0.00,VWS V14.01,2013-02-27 08:33:00,
2013-02-27 03:34:00,73.0,71.5,30.00,WNW,287,0.0,0.0,95,0.00,,---,0.00,VWS V14.01,2013-02-27 08:34:00,
2013-02-27 03:35:00,73.0,71.5,30.00,WNW,287,0.0,0.0,95,0.00,,---,0.00,VWS V14.01,2013-02-27 08:35:00,
2013-02-27 03:36:00,73.0,71.5,30.00,WNW,287,0.0,0.0,95,0.00,,---,0.00,VWS V14.01,2013-02-27 08:36:00,
2013-02-27 03:37:00,73.0,71.5,30.00,SW,230,2.7,2.7,95,0.00,,---,0.00,VWS V14.01,2013-02-27 08:37:00,
2013-02-27 03:38:00,73.0,71.5,30.00,WSW,241,0.0,2.7,95,0.00,,---,0.00,VWS V14.01,2013-02-27 08:38:00,
2013-02-27 03:39:00,73.0,71.5,30.00,WNW,298,0.0,0.0,95,0.00,,---,0.00,VWS V14.01,2013-02-27 08:39:00,
2013-02-27 03:40:00,72.9,71.3,29.97,WNW,287,3.1,3.1,95,0.00,,---,0.00,VWS V14.01,2013-02-27 08:40:00,
2013-02-27 03:41:00,72.9,71.3,29.97,WNW,286,2.2,3.1,95,0.00,,---,0.00,VWS V14.01,2013-02-27 08:41:00,
2013-02-27 03:42:00,72.9,71.3,29.97,WSW,254,3.6,3.6,95,0.00,,---,0.00,VWS V14.01,2013-02-27 08:42:00,
2013-02-27 03:43:00,72.9,71.3,29.97,WSW,254,0.0,3.6,95,0.00,,---,0.00,VWS V14.01,2013-02-27 08:43:00,
2013-02-27 03:44:00,72.9,71.3,29.97,WSW,251,0.0,0.0,95,0.00,,---,0.00,VWS V14.01,2013-02-27 08:44:00,
2013-02-27 03:45:00,72.9,71.3,29.97,West,276,3.1,3.1,95,0.00,,---,0.00,VWS V14.01,2013-02-27 08:45:00,
2013-02-27 03:46:00,72.9,71.3,29.97,West,266,2.2,3.1,95,0.00,,---,0.00,VWS V14.01,2013-02-27 08:46:00,
2013-02-27 03:47:00,72.9,71.3,29.97,WSW,243,3.1,3.1,95,0.00,,---,0.00,VWS V14.01,2013-02-27 08:47:00,
2013-02-27 03:48:00,72.9,71.3,29.97,West,263,0.0,3.1,95,0.00,,---,0.00,VWS V14.01,2013-02-27 08:48:00,
2013-02-27 03:49:00,72.9,71.3,29.97,West,271,0.0,0.0,95,0.00,,---,0.00,VWS V14.01,2013-02-27 08:49:00,
2013-02-27 03:50:00,72.9,71.3,29.97,WNW,301,0.0,3.1,95,0.00,,---,0.00,VWS V14.01,2013-02-27 08:50:00,
2013-02-27 03:51:00,72.9,71.3,29.97,WSW,243,3.6,3.6,95,0.00,,---,0.00,VWS V14.01,2013-02-27 08:51:00,
2013-02-27 03:52:00,72.9,71.3,29.97,WSW,249,0.0,4.0,95,0.00,,---,0.00,VWS V14.01,2013-02-27 08:52:00,
2013-02-27 03:53:00,72.9,71.3,29.97,WNW,286,3.1,3.1,95,0.00,,---,0.00,VWS V14.01,2013-02-27 08:53:00,
2013-02-27 03:54:00,72.9,71.3,29.97,WNW,302,4.0,4.0,95,0.00,,---,0.00,VWS V14.01,2013-02-27 08:54:00,
2013-02-27 03:55:00,72.7,71.2,29.97,WNW,286,0.0,2.2,95,0.00,,---,0.00,VWS V14.01,2013-02-27 08:55:00,
2013-02-27 03:56:00,72.7,71.2,29.97,WNW,286,0.0,2.2,95,0.00,,---,0.00,VWS V14.01,2013-02-27 08:56:00,
2013-02-27 03:57:00,72.7,71.2,29.97,WNW,288,2.2,2.2,95,0.00,,---,0.00,VWS V14.01,2013-02-27 08:57:00,
2013-02-27 03:58:00,72.7,71.2,29.97,WNW,288,0.0,2.2,95,0.00,,---,0.00,VWS V14.01,2013-02-27 08:58:00,
2013-02-27 03:59:00,72.7,71.2,29.97,West,265,0.0,0.0,95,0.00,,---,0.00,VWS V14.01,2013-02-27 08:59:00,
2013-02-27 04:00:00,72.7,71.2,29.97,WNW,296,0.0,3.6,95,0.00,,---,0.00,VWS V14.01,2013-02-27 09:00:00,
2013-02-27 04:01:00,72.5,71.0,29.97,WSW,251,5.4,5.4,95,0.00,,---,0.00,VWS V14.01,2013-02-27 09:01:00,
2013-02-27 04:02:00,72.5,71.0,29.97,West,275,2.7,5.4,95,0.00,,---,0.00,VWS V14.01,2013-02-27 09:02:00,
2013-02-27 04:03:00,72.5,71.0,29.97,West,267,0.0,2.7,95,0.00,,---,0.00,VWS V14.01,2013-02-27 09:03:00,
2013-02-27 04:04:00,72.3,70.8,29.97,West,268,0.0,0.0,95,0.00,,---,0.00,VWS V14.01,2013-02-27 09:04:00,
2013-02-27 04:05:00,72.3,70.8,29.97,WSW,257,0.0,0.0,95,0.00,,---,0.00,VWS V14.01,2013-02-27 09:05:00,
2013-02-27 04:06:00,72.3,70.8,29.97,West,275,2.7,2.7,95,0.00,,---,0.00,VWS V14.01,2013-02-27 09:06:00,
2013-02-27 04:07:00,72.3,70.8,30.00,West,277,2.2,2.7,95,0.00,,---,0.00,VWS V14.01,2013-02-27 09:07:00,
2013-02-27 04:08:00,72.3,70.8,30.00,West,277,2.2,2.2,95,0.00,,---,0.00,VWS V14.01,2013-02-27 09:08:00,
2013-02-27 04:09:00,72.3,70.8,30.00,WNW,296,0.0,2.2,95,0.00,,---,0.00,VWS V14.01,2013-02-27 09:09:00,
2013-02-27 04:10:00,72.3,70.8,30.00,WNW,284,0.0,2.2,95,0.00,,---,0.00,VWS V14.01,2013-02-27 09:10:00,
2013-02-27 04:11:00,72.3,70.8,30.00,WNW,284,0.0,0.0,95,0.00,,---,0.00,VWS V14.01,2013-02-27 09:11:00,
2013-02-27 04:12:00,72.3,70.8,30.00,West,274,0.0,2.7,95,0.00,,---,0.00,VWS V14.01,2013-02-27 09:12:00,
2013-02-27 04:13:00,72.3,70.8,30.00,West,274,0.0,0.0,95,0.00,,---,0.00,VWS V14.01,2013-02-27 09:13:00,
2013-02-27 04:14:00,72.3,70.8,30.00,WSW,247,2.7,2.7,95,0.00,,---,0.00,VWS V14.01,2013-02-27 09:14:00,
2013-02-27 04:15:00,72.3,70.8,30.00,WSW,247,0.0,2.7,95,0.00,,---,0.00,VWS V14.01,2013-02-27 09:15:00,
2013-02-27 04:16:00,72.3,70.8,30.00,WNW,292,0.0,0.0,95,0.00,,---,0.00,VWS V14.01,2013-02-27 09:16:00,
2013-02-27 04:17:00,72.3,70.8,30.00,WNW,295,0.0,0.0,95,0.00,,---,0.00,VWS V14.01,2013-02-27 09:17:00,
2013-02-27 04:18:00,72.3,70.8,30.00,WNW,295,0.0,0.0,95,0.00,,---,0.00,VWS V14.01,2013-02-27 09:18:00,
2013-02-27 04:19:00,72.3,70.8,30.00,WNW,295,0.0,0.0,95,0.00,,---,0.00,VWS V14.01,2013-02-27 09:19:00,
2013-02-27 04:20:00,72.3,70.8,30.00,WNW,294,0.0,0.0,95,0.00,,---,0.00,VWS V14.01,2013-02-27 09:20:00,
2013-02-27 04:21:00,72.3,70.8,30.00,West,280,3.1,3.1,95,0.00,,---,0.00,VWS V14.01,2013-02-27 09:21:00,
2013-02-27 04:22:00,72.3,70.8,30.00,WNW,283,2.7,3.1,95,0.00,,---,0.00,VWS V14.01,2013-02-27 09:22:00,
2013-02-27 04:23:00,72.1,70.6,30.00,NW,324,4.0,4.0,95,0.00,,---,0.00,VWS V14.01,2013-02-27 09:23:00,
2013-02-27 04:24:00,72.1,70.6,30.00,NW,314,5.4,5.4,95,0.00,,---,0.00,VWS V14.01,2013-02-27 09:24:00,
2013-02-27 04:25:00,71.6,70.1,30.00,WNW,292,4.0,5.4,95,0.00,,---,0.00,VWS V14.01,2013-02-27 09:25:00,
2013-02-27 04:26:00,71.6,70.1,30.00,West,273,3.6,3.6,95,0.00,,---,0.00,VWS V14.01,2013-02-27 09:26:00,
2013-02-27 04:27:00,71.1,69.2,30.00,NNW,344,2.7,6.7,94,0.00,,---,0.00,VWS V14.01,2013-02-27 09:27:00,
2013-02-27 04:28:00,70.9,68.8,30.00,WNW,286,3.1,3.6,93,0.00,,---,0.00,VWS V14.01,2013-02-27 09:28:00,
2013-02-27 04:29:00,70.9,68.8,30.00,WNW,289,2.2,3.1,93,0.00,,---,0.00,VWS V14.01,2013-02-27 09:29:00,
2013-02-27 04:30:00,70.7,67.9,30.00,WNW,303,2.7,2.7,91,0.00,,---,0.00,VWS V14.01,2013-02-27 09:30:00,
2013-02-27 04:31:00,70.5,67.1,30.00,NW,312,2.7,2.7,89,0.00,,---,0.00,VWS V14.01,2013-02-27 09:31:00,
2013-02-27 04:32:00,70.2,65.8,30.00,WNW,299,2.2,2.7,86,0.00,,---,0.00,VWS V14.01,2013-02-27 09:32:00,
2013-02-27 04:33:00,70.0,65.3,30.00,West,280,3.6,3.6,85,0.00,,---,0.00,VWS V14.01,2013-02-27 09:33:00,
2013-02-27 04:34:00,69.8,64.1,30.00,WNW,288,2.7,3.6,82,0.00,,---,0.00,VWS V14.01,2013-02-27 09:34:00,
2013-02-27 04:35:00,69.8,64.1,30.00,WNW,297,2.7,2.7,82,0.00,,---,0.00,VWS V14.01,2013-02-27 09:35:00,
2013-02-27 04:36:00,69.4,63.4,30.00,West,274,3.6,3.6,81,0.00,,---,0.00,VWS V14.01,2013-02-27 09:36:00,
2013-02-27 04:37:00,69.4,63.4,30.00,West,274,3.6,3.6,81,0.00,,---,0.00,VWS V14.01,2013-02-27 09:37:00,
2013-02-27 04:38:00,69.1,62.7,30.00,WNW,291,0.0,3.6,80,0.00,,---,0.00,VWS V14.01,2013-02-27 09:38:00,
2013-02-27 04:39:00,68.7,62.3,30.00,West,264,4.9,4.9,80,0.00,,---,0.00,VWS V14.01,2013-02-27 09:39:00,
2013-02-27 04:40:00,68.5,61.8,30.00,West,264,4.9,4.9,79,0.00,,---,0.00,VWS V14.01,2013-02-27 09:40:00,
2013-02-27 04:41:00,68.2,61.4,30.00,West,275,2.7,4.0,79,0.00,,---,0.00,VWS V14.01,2013-02-27 09:41:00,
2013-02-27 04:42:00,68.0,60.5,30.00,West,275,2.7,4.0,77,0.00,,---,0.00,VWS V14.01,2013-02-27 09:42:00,
2013-02-27 04:43:00,68.0,60.5,30.00,WNW,294,2.7,3.6,77,0.00,,---,0.00,VWS V14.01,2013-02-27 09:43:00,
2013-02-27 04:44:00,67.8,60.3,30.00,WNW,294,2.7,2.7,77,0.00,,---,0.00,VWS V14.01,2013-02-27 09:44:00,
2013-02-27 04:45:00,67.6,60.5,30.00,WNW,294,2.7,2.7,78,0.00,,---,0.00,VWS V14.01,2013-02-27 09:45:00,
2013-02-27 04:46:00,67.6,60.5,30.00,NNW,332,3.1,3.1,78,0.00,,---,0.00,VWS V14.01,2013-02-27 09:46:00,
2013-02-27 04:47:00,67.5,60.7,30.00,NNW,332,3.1,3.1,79,0.00,,---,0.00,VWS V14.01,2013-02-27 09:47:00,
2013-02-27 04:48:00,67.5,60.7,30.00,WNW,286,2.7,3.1,79,0.00,,---,0.00,VWS V14.01,2013-02-27 09:48:00,
2013-02-27 04:49:00,67.5,61.1,30.00,NW,310,3.1,3.1,80,0.00,,---,0.00,VWS V14.01,2013-02-27 09:49:00,
2013-02-27 04:50:00,67.5,61.1,30.00,WNW,300,3.1,3.1,80,0.00,,---,0.00,VWS V14.01,2013-02-27 09:50:00,
2013-02-27 04:51:00,67.5,61.1,30.00,WNW,290,4.9,4.9,80,0.00,,---,0.00,VWS V14.01,2013-02-27 09:51:00,
2013-02-27 04:52:00,67.5,61.1,30.00,WNW,290,4.9,4.9,80,0.00,,---,0.00,VWS V14.01,2013-02-27 09:52:00,
2013-02-27 04:53:00,67.5,61.1,30.00,WNW,288,2.7,4.9,80,0.00,,---,0.00,VWS V14.01,2013-02-27 09:53:00,
2013-02-27 04:54:00,67.3,61.3,30.00,WNW,288,2.7,2.7,81,0.00,,---,0.00,VWS V14.01,2013-02-27 09:54:00,
2013-02-27 04:55:00,67.3,61.3,30.00,NW,304,0.0,2.7,81,0.00,,---,0.00,VWS V14.01,2013-02-27 09:55:00,
2013-02-27 04:56:00,67.3,61.6,30.00,NW,304,0.0,0.0,82,0.00,,---,0.00,VWS V14.01,2013-02-27 09:56:00,
2013-02-27 04:57:00,67.3,61.6,30.00,West,280,4.0,4.0,82,0.00,,---,0.00,VWS V14.01,2013-02-27 09:57:00,
2013-02-27 04:59:00,67.3,61.6,30.00,NW,306,2.7,2.7,82,0.00,,---,0.00,VWS V14.01,2013-02-27 09:59:00,
2013-02-27 05:00:00,67.3,61.6,30.00,WNW,293,3.1,3.1,82,0.00,,---,0.00,VWS V14.01,2013-02-27 10:00:00,
2013-02-27 05:30:00,68.2,61.8,30.00,WNW,302,3.6,3.6,80,0.00,,---,0.00,VWS V14.01,2013-02-27 10:30:00,
2013-02-27 05:35:00,68.5,59.9,30.00,NW,304,0.0,0.0,74,0.00,,---,0.00,VWS V14.01,2013-02-27 10:35:00,
2013-02-27 05:40:00,68.7,56.1,30.03,West,271,3.6,5.8,64,0.00,,---,0.00,VWS V14.01,2013-02-27 10:40:00,
2013-02-27 05:45:00,68.9,55.8,30.03,NW,305,0.0,2.2,63,0.00,,---,0.00,VWS V14.01,2013-02-27 10:45:00,
2013-02-27 05:50:00,68.9,56.2,30.03,WNW,287,3.1,4.0,64,0.00,,---,0.00,VWS V14.01,2013-02-27 10:50:00,
2013-02-27 05:55:00,68.7,55.6,30.03,WSW,257,0.0,0.0,63,0.00,,---,0.00,VWS V14.01,2013-02-27 10:55:00,
2013-02-27 06:00:00,68.4,56.2,30.03,North,357,4.5,4.5,65,0.00,,---,0.00,VWS V14.01,2013-02-27 11:00:00,
2013-02-27 06:06:00,67.8,58.9,30.03,NW,321,0.0,3.6,73,0.00,,---,0.00,VWS V14.01,2013-02-27 11:06:00,
2013-02-27 06:11:00,67.6,60.5,30.03,WNW,297,2.2,3.1,78,0.00,,---,0.00,VWS V14.01,2013-02-27 11:11:00,
2013-02-27 06:16:00,67.6,61.3,30.03,WNW,292,2.7,2.7,80,0.00,,---,0.00,VWS V14.01,2013-02-27 11:16:00,
2013-02-27 06:21:00,67.6,61.3,30.03,WNW,295,0.0,2.2,80,0.00,,---,0.00,VWS V14.01,2013-02-27 11:21:00,
2013-02-27 06:26:00,67.6,61.3,30.03,West,280,3.1,3.6,80,0.00,,---,0.00,VWS V14.01,2013-02-27 11:26:00,
2013-02-27 06:31:00,67.8,60.7,30.03,WNW,295,0.0,3.1,78,0.00,,---,0.00,VWS V14.01,2013-02-27 11:31:00,
2013-02-27 06:36:00,67.6,60.5,30.03,WNW,284,2.2,2.2,78,0.00,,---,0.00,VWS V14.01,2013-02-27 11:36:00,
2013-02-27 06:41:00,67.6,60.9,30.03,WNW,290,0.0,0.0,79,0.00,,---,0.00,VWS V14.01,2013-02-27 11:41:00,
2013-02-27 06:46:00,67.6,61.3,30.03,NW,324,4.0,4.9,80,0.00,,---,0.00,VWS V14.01,2013-02-27 11:46:00,
2013-02-27 06:51:00,67.6,61.3,30.03,WNW,285,2.2,3.6,80,0.00,,---,0.00,VWS V14.01,2013-02-27 11:51:00,
2013-02-27 06:56:00,67.8,61.1,30.03,WNW,285,3.1,3.1,79,0.00,,---,0.00,VWS V14.01,2013-02-27 11:56:00,
2013-02-27 07:01:00,67.8,61.1,30.03,West,280,2.2,3.1,79,0.00,,---,0.00,VWS V14.01,2013-02-27 12:01:00,
2013-02-27 07:06:00,67.8,60.3,30.03,West,273,2.7,2.7,77,0.00,,---,0.00,VWS V14.01,2013-02-27 12:06:00,
2013-02-27 07:11:00,67.8,60.0,30.03,West,278,3.6,5.4,76,0.00,,---,0.00,VWS V14.01,2013-02-27 12:11:00,
2013-02-27 07:16:00,67.8,59.6,30.03,WNW,290,0.0,0.0,75,0.00,,---,0.00,VWS V14.01,2013-02-27 12:16:00,
2013-02-27 07:22:00,67.8,59.6,30.06,WNW,284,3.1,3.6,75,0.00,,---,0.00,VWS V14.01,2013-02-27 12:22:00,
2013-02-27 07:27:00,68.0,59.4,30.06,West,277,3.1,4.0,74,0.00,,---,0.00,VWS V14.01,2013-02-27 12:27:00,
2013-02-27 07:32:00,68.0,59.0,30.06,WNW,288,2.2,2.2,73,0.00,,---,0.00,VWS V14.01,2013-02-27 12:32:00,
2013-02-27 07:37:00,68.4,59.4,30.06,WNW,290,2.7,2.7,73,0.00,,---,0.00,VWS V14.01,2013-02-27 12:37:00,
2013-02-27 07:42:00,68.7,59.3,30.06,NNW,346,2.7,2.7,72,0.00,,---,0.00,VWS V14.01,2013-02-27 12:42:00,
2013-02-27 07:47:00,69.3,59.1,30.06,NW,305,0.0,2.2,70,0.00,,---,0.00,VWS V14.01,2013-02-27 12:47:00,
2013-02-27 07:52:00,69.6,55.1,30.06,NW,309,0.0,0.0,60,0.00,,---,0.00,VWS V14.01,2013-02-27 12:52:00,
2013-02-27 07:57:00,69.6,54.2,30.06,NNW,329,2.2,2.7,58,0.00,,---,0.00,VWS V14.01,2013-02-27 12:57:00,
2013-02-27 08:03:00,69.8,54.4,30.06,WNW,289,0.0,0.0,58,0.00,,---,0.00,VWS V14.01,2013-02-27 13:03:00,
2013-02-27 08:08:00,70.0,54.1,30.06,WNW,286,0.0,3.6,57,0.00,,---,0.00,VWS V14.01,2013-02-27 13:08:00,
2013-02-27 08:13:00,70.5,52.1,30.06,NNW,338,3.6,4.9,52,0.00,,---,0.00,VWS V14.01,2013-02-27 13:13:00,
2013-02-27 08:18:00,72.1,49.7,30.06,NNW,340,4.0,4.5,45,0.00,,---,0.00,VWS V14.01,2013-02-27 13:18:00,
2013-02-27 08:23:00,73.2,48.8,30.06,NW,308,2.2,2.7,42,0.00,,---,0.00,VWS V14.01,2013-02-27 13:23:00,
2013-02-27 08:28:00,73.6,47.1,30.06,NNW,342,3.1,3.1,39,0.00,,---,0.00,VWS V14.01,2013-02-27 13:28:00,
2013-02-27 08:33:00,74.1,46.9,30.06,NW,318,6.3,6.3,38,0.00,,---,0.00,VWS V14.01,2013-02-27 13:33:00,
2013-02-27 08:38:00,74.1,45.5,30.06,West,281,3.1,5.8,36,0.00,,---,0.00,VWS V14.01,2013-02-27 13:38:00,
2013-02-27 08:44:00,74.3,47.1,30.06,North,3,5.4,5.4,38,0.00,,---,0.00,VWS V14.01,2013-02-27 13:44:00,
2013-02-27 08:49:00,74.8,45.4,30.06,WNW,286,3.1,4.0,35,0.00,,---,0.00,VWS V14.01,2013-02-27 13:49:00,
2013-02-27 08:54:00,76.5,45.2,30.06,WNW,299,3.1,4.0,33,0.00,,---,0.00,VWS V14.01,2013-02-27 13:54:00,
2013-02-27 08:59:00,78.3,45.2,30.06,North,0,3.6,3.6,31,0.00,,---,0.00,VWS V14.01,2013-02-27 13:59:00,
2013-02-27 09:04:00,80.6,42.6,30.06,North,8,3.6,3.6,26,0.00,,---,0.00,VWS V14.01,2013-02-27 14:04:00,
2013-02-27 09:09:00,81.9,43.7,30.06,NNW,332,4.0,4.0,26,0.00,,---,0.00,VWS V14.01,2013-02-27 14:09:00,
2013-02-27 09:14:00,81.7,39.2,30.06,NNE,23,3.1,4.5,22,0.00,,---,0.00,VWS V14.01,2013-02-27 14:14:00,
2013-02-27 09:20:00,81.9,41.6,30.06,North,5,4.0,4.0,24,0.00,,---,0.00,VWS V14.01,2013-02-27 14:20:00,
2013-02-27 09:25:00,79.7,40.8,30.06,NNW,342,4.9,5.8,25,0.00,,---,0.00,VWS V14.01,2013-02-27 14:25:00,
2013-02-27 09:30:00,80.2,41.3,30.06,WNW,299,4.9,4.9,25,0.00,,---,0.00,VWS V14.01,2013-02-27 14:30:00,
2013-02-27 09:35:00,80.1,39.0,30.06,NW,317,5.8,5.8,23,0.00,,---,0.00,VWS V14.01,2013-02-27 14:35:00,
2013-02-27 09:40:00,80.6,38.3,30.06,WNW,299,4.9,5.8,22,0.00,,---,0.00,VWS V14.01,2013-02-27 14:40:00,
2013-02-27 09:45:00,81.1,38.7,30.06,North,353,4.0,5.4,22,0.00,,---,0.00,VWS V14.01,2013-02-27 14:45:00,
2013-02-27 09:50:00,81.5,39.0,30.06,NW,325,4.9,6.3,22,0.00,,---,0.00,VWS V14.01,2013-02-27 14:50:00,
2013-02-27 09:55:00,82.4,38.6,30.06,NW,319,4.9,5.8,21,0.00,,---,0.00,VWS V14.01,2013-02-27 14:55:00,
2013-02-27 10:00:00,83.5,40.7,30.06,North,0,3.6,4.0,22,0.00,,---,0.00,VWS V14.01,2013-02-27 15:00:00,
2013-02-27 10:06:00,83.7,39.6,30.06,North,357,2.7,3.1,21,0.00,,---,0.00,VWS V14.01,2013-02-27 15:06:00,
2013-02-27 10:11:00,85.5,39.9,30.06,NW,315,3.1,5.8,20,0.00,,---,0.00,VWS V14.01,2013-02-27 15:11:00,
2013-02-27 10:16:00,84.0,39.9,30.06,NW,324,2.7,3.6,21,0.00,,---,0.00,VWS V14.01,2013-02-27 15:16:00,
2013-02-27 10:21:00,81.3,38.9,30.09,North,0,0.0,0.0,22,0.00,,---,0.00,VWS V14.01,2013-02-27 15:21:00,
2013-02-27 10:26:00,79.7,39.8,30.09,West,271,5.4,5.4,24,0.00,,---,0.00,VWS V14.01,2013-02-27 15:26:00,
2013-02-27 10:31:00,79.3,38.4,30.09,WNW,285,3.6,4.0,23,0.00,,---,0.00,VWS V14.01,2013-02-27 15:31:00,
2013-02-27 10:36:00,80.8,40.7,30.09,NW,310,3.6,4.0,24,0.00,,---,0.00,VWS V14.01,2013-02-27 15:36:00,
2013-02-27 10:41:00,81.1,39.9,30.09,NW,307,3.6,5.4,23,0.00,,---,0.00,VWS V14.01,2013-02-27 15:41:00,
2013-02-27 10:46:00,81.0,38.6,30.09,NW,317,3.1,5.4,22,0.00,,---,0.00,VWS V14.01,2013-02-27 15:46:00,
2013-02-27 10:51:00,83.1,39.2,30.09,NW,310,0.0,5.4,21,0.00,,---,0.00,VWS V14.01,2013-02-27 15:51:00,
2013-02-27 10:57:00,82.4,39.8,30.09,NNW,329,2.7,3.6,22,0.00,,---,0.00,VWS V14.01,2013-02-27 15:57:00,
2013-02-27 11:02:00,82.0,39.5,30.09,West,268,3.1,3.6,22,0.00,,---,0.00,VWS V14.01,2013-02-27 16:02:00,
2013-02-27 11:07:00,81.3,41.1,30.09,North,11,4.0,5.4,24,0.00,,---,0.00,VWS V14.01,2013-02-27 16:07:00,
2013-02-27 11:12:00,81.0,39.7,30.09,North,353,4.0,6.3,23,0.00,,---,0.00,VWS V14.01,2013-02-27 16:12:00,
2013-02-27 11:18:00,81.5,39.0,30.09,North,349,3.6,6.3,22,0.00,,---,0.00,VWS V14.01,2013-02-27 16:18:00,
2013-02-27 11:23:00,82.6,38.7,30.09,North,8,2.2,2.7,21,0.00,,---,0.00,VWS V14.01,2013-02-27 16:23:00,
2013-02-27 11:28:00,82.4,38.6,30.09,West,279,4.9,4.9,21,0.00,,---,0.00,VWS V14.01,2013-02-27 16:28:00,
2013-02-27 11:33:00,81.7,39.2,30.09,North,357,2.7,5.4,22,0.00,,---,0.00,VWS V14.01,2013-02-27 16:33:00,
2013-02-27 11:38:00,80.4,39.3,30.09,WNW,301,3.6,4.0,23,0.00,,---,0.00,VWS V14.01,2013-02-27 16:38:00,
2013-02-27 11:43:00,79.5,39.6,30.09,NNW,327,2.7,3.1,24,0.00,,---,0.00,VWS V14.01,2013-02-27 16:43:00,
2013-02-27 11:48:00,78.6,40.9,30.09,WNW,300,0.0,2.7,26,0.00,,---,0.00,VWS V14.01,2013-02-27 16:48:00,
2013-02-27 11:53:00,77.7,40.1,30.06,NNW,340,2.2,3.1,26,0.00,,---,0.00,VWS V14.01,2013-02-27 16:53:00,
2013-02-27 11:58:00,76.5,41.9,30.06,NNW,330,0.0,2.7,29,0.00,,---,0.00,VWS V14.01,2013-02-27 16:58:00,
2013-02-27 12:03:00,75.7,43.0,30.06,NNW,329,2.7,4.0,31,0.00,,---,0.00,VWS V14.01,2013-02-27 17:03:00,
2013-02-27 12:08:00,72.7,43.5,30.06,North,353,2.2,2.7,35,0.00,,---,0.00,VWS V14.01,2013-02-27 17:08:00,
2013-02-27 12:13:00,72.3,43.2,30.06,NNW,331,0.0,0.0,35,0.00,,---,0.00,VWS V14.01,2013-02-27 17:13:00,
2013-02-27 12:18:00,73.4,44.1,30.06,NE,37,0.0,0.0,35,0.00,,---,0.00,VWS V14.01,2013-02-27 17:18:00,
2013-02-27 12:23:00,75.0,43.2,30.06,NNW,341,0.0,3.1,32,0.00,,---,0.00,VWS V14.01,2013-02-27 17:23:00,
2013-02-27 12:29:00,76.5,43.6,30.06,NNW,342,0.0,0.0,31,0.00,,---,0.00,VWS V14.01,2013-02-27 17:29:00,
2013-02-27 12:34:00,77.4,41.7,30.06,NNW,341,2.7,3.1,28,0.00,,---,0.00,VWS V14.01,2013-02-27 17:34:00,
2013-02-27 12:39:00,78.6,40.9,30.06,NE,40,0.0,2.7,26,0.00,,---,0.00,VWS V14.01,2013-02-27 17:39:00,
2013-02-27 12:44:00,80.2,41.3,30.06,NNW,335,0.0,0.0,25,0.00,,---,0.00,VWS V14.01,2013-02-27 17:44:00,
2013-02-27 12:49:00,80.2,39.1,30.06,NW,312,0.0,0.0,23,0.00,,---,0.00,VWS V14.01,2013-02-27 17:49:00,
2013-02-27 12:54:00,78.6,38.8,30.06,WSW,257,0.0,2.7,24,0.00,,---,0.00,VWS V14.01,2013-02-27 17:54:00,
2013-02-27 12:59:00,77.2,39.7,30.06,NNW,338,0.0,0.0,26,0.00,,---,0.00,VWS V14.01,2013-02-27 17:59:00,
2013-02-27 13:04:00,76.1,40.7,30.06,WNW,290,0.0,0.0,28,0.00,,---,0.00,VWS V14.01,2013-02-27 18:04:00,
2013-02-27 13:09:00,75.2,42.5,30.06,NNW,335,0.0,0.0,31,0.00,,---,0.00,VWS V14.01,2013-02-27 18:09:00,
2013-02-27 13:14:00,74.1,42.4,30.06,NNW,337,4.0,4.0,32,0.00,,---,0.00,VWS V14.01,2013-02-27 18:14:00,
2013-02-27 13:19:00,72.5,42.6,30.06,NW,315,2.2,2.7,34,0.00,,---,0.00,VWS V14.01,2013-02-27 18:19:00,
2013-02-27 13:24:00,70.9,44.0,30.06,NNW,329,4.0,5.4,38,0.00,,---,0.00,VWS V14.01,2013-02-27 18:24:00,
2013-02-27 13:29:00,70.2,47.2,30.06,NNW,339,0.0,0.0,44,0.00,,---,0.00,VWS V14.01,2013-02-27 18:29:00,
2013-02-27 13:34:00,71.1,46.8,30.06,West,272,3.1,3.1,42,0.00,,---,0.00,VWS V14.01,2013-02-27 18:34:00,
2013-02-27 13:39:00,72.3,44.6,30.06,North,0,3.1,3.1,37,0.00,,---,0.00,VWS V14.01,2013-02-27 18:39:00,
2013-02-27 13:44:00,73.2,44.7,30.06,NW,313,0.0,0.0,36,0.00,,---,0.00,VWS V14.01,2013-02-27 18:44:00,
2013-02-27 13:50:00,73.0,43.8,30.06,WNW,289,0.0,2.7,35,0.00,,---,0.00,VWS V14.01,2013-02-27 18:50:00,
2013-02-27 13:55:00,72.7,43.5,30.06,WSW,239,4.9,4.9,35,0.00,,---,0.00,VWS V14.01,2013-02-27 18:55:00,
2013-02-27 14:00:00,71.8,42.7,30.06,NW,310,0.0,0.0,35,0.00,,---,0.00,VWS V14.01,2013-02-27 19:00:00,
2013-02-27 14:05:00,71.1,43.5,30.06,WNW,288,0.0,0.0,37,0.00,,---,0.00,VWS V14.01,2013-02-27 19:05:00,
2013-02-27 14:10:00,69.3,47.0,30.06,NW,322,0.0,0.0,45,0.00,,---,0.00,VWS V14.01,2013-02-27 19:10:00,
2013-02-27 14:15:00,68.4,49.0,30.06,NW,322,0.0,0.0,50,0.00,,---,0.00,VWS V14.01,2013-02-27 19:15:00,
2013-02-27 14:20:00,68.4,49.5,30.03,NNW,334,0.0,0.0,51,0.00,,---,0.00,VWS V14.01,2013-02-27 19:20:00,
2013-02-27 14:25:00,68.5,52.2,30.03,NNW,334,0.0,0.0,56,0.00,,---,0.00,VWS V14.01,2013-02-27 19:25:00,
2013-02-27 14:30:00,68.9,54.5,30.03,NNW,338,2.7,2.7,60,0.00,,---,0.00,VWS V14.01,2013-02-27 19:30:00,
2013-02-27 14:35:00,68.9,52.6,30.03,WNW,287,2.7,2.7,56,0.00,,---,0.00,VWS V14.01,2013-02-27 19:35:00,
2013-02-27 14:40:00,68.4,52.5,30.03,West,277,0.0,0.0,57,0.00,,---,0.00,VWS V14.01,2013-02-27 19:40:00,
2013-02-27 14:45:00,69.1,53.2,30.03,WNW,296,2.2,2.2,57,0.00,,---,0.00,VWS V14.01,2013-02-27 19:45:00,
2013-02-27 14:51:00,69.6,51.2,30.03,WNW,293,0.0,0.0,52,0.00,,---,0.00,VWS V14.01,2013-02-27 19:51:00,
2013-02-27 14:56:00,69.3,48.8,30.03,West,279,0.0,0.0,48,0.00,,---,0.00,VWS V14.01,2013-02-27 19:56:00,
2013-02-27 15:01:00,68.5,51.2,30.03,NW,319,0.0,0.0,54,0.00,,---,0.00,VWS V14.01,2013-02-27 20:01:00,
2013-02-27 15:06:00,68.2,52.4,30.03,NW,323,0.0,0.0,57,0.00,,---,0.00,VWS V14.01,2013-02-27 20:06:00,
2013-02-27 15:11:00,67.8,55.2,30.03,WNW,301,0.0,0.0,64,0.00,,---,0.00,VWS V14.01,2013-02-27 20:11:00,
2013-02-27 15:16:00,67.8,55.6,30.03,NW,312,3.6,3.6,65,0.00,,---,0.00,VWS V14.01,2013-02-27 20:16:00,
2013-02-27 15:21:00,68.0,55.8,30.03,NNW,332,0.0,0.0,65,0.04,,---,0.04,VWS V14.01,2013-02-27 20:21:00,
2013-02-27 15:26:00,68.0,54.5,30.03,NNW,335,0.0,0.0,62,0.04,,---,0.04,VWS V14.01,2013-02-27 20:26:00,
2013-02-27 15:31:00,68.2,54.2,30.03,WNW,302,0.0,0.0,61,0.04,,---,0.04,VWS V14.01,2013-02-27 20:31:00,
2013-02-27 15:36:00,68.9,55.4,30.03,WNW,303,0.0,0.0,62,0.04,,---,0.04,VWS V14.01,2013-02-27 20:36:00,
2013-02-27 15:41:00,70.2,51.7,30.03,NW,314,2.7,2.7,52,0.04,,---,0.04,VWS V14.01,2013-02-27 20:41:00,
2013-02-27 15:47:00,70.5,51.0,30.03,NW,310,2.7,2.7,50,0.04,,---,0.04,VWS V14.01,2013-02-27 20:47:00,
2013-02-27 15:52:00,69.6,51.8,30.03,WNW,301,2.2,2.7,53,0.04,,---,0.04,VWS V14.01,2013-02-27 20:52:00,
2013-02-27 15:57:00,69.4,54.5,30.03,WNW,288,2.7,3.1,59,0.04,,---,0.04,VWS V14.01,2013-02-27 20:57:00,
2013-02-27 16:02:00,69.3,55.7,30.03,WNW,286,3.6,3.6,62,0.04,,---,0.04,VWS V14.01,2013-02-27 21:02:00,
2013-02-27 16:07:00,68.5,53.7,30.03,North,2,5.8,5.8,59,0.04,,---,0.04,VWS V14.01,2013-02-27 21:07:00,
2013-02-27 16:12:00,68.2,54.7,30.03,WNW,303,3.1,5.4,62,0.04,,---,0.04,VWS V14.01,2013-02-27 21:12:00,
2013-02-27 16:17:00,67.1,57.0,30.03,NNW,341,4.0,4.0,70,0.04,,---,0.04,VWS V14.01,2013-02-27 21:17:00,
2013-02-27 16:22:00,66.4,58.2,30.03,WNW,295,4.0,4.0,75,0.00,,---,0.04,VWS V14.01,2013-02-27 21:22:00,
2013-02-27 16:27:00,65.8,59.5,30.03,WNW,294,4.0,4.0,80,0.00,,---,0.04,VWS V14.01,2013-02-27 21:27:00,
2013-02-27 16:32:00,65.8,59.5,30.03,WNW,292,5.4,5.4,80,0.00,,---,0.04,VWS V14.01,2013-02-27 21:32:00,
2013-02-27 16:37:00,65.7,61.4,30.06,West,273,4.0,4.0,86,0.00,,---,0.04,VWS V14.01,2013-02-27 21:37:00,
2013-02-27 16:42:00,65.7,61.7,30.06,NW,305,3.1,3.1,87,0.00,,---,0.04,VWS V14.01,2013-02-27 21:42:00,
2013-02-27 16:47:00,65.7,62.3,30.06,West,280,2.7,4.5,89,0.00,,---,0.04,VWS V14.01,2013-02-27 21:47:00,
2013-02-27 16:53:00,65.7,62.7,30.03,NNW,337,2.7,2.7,90,0.00,,---,0.04,VWS V14.01,2013-02-27 21:53:00,
2013-02-27 16:58:00,65.7,62.7,30.03,NW,307,2.7,2.7,90,0.00,,---,0.04,VWS V14.01,2013-02-27 21:58:00,
2013-02-27 17:03:00,65.7,62.7,30.03,NNW,332,4.0,4.0,90,0.00,,---,0.04,VWS V14.01,2013-02-27 22:03:00,
2013-02-27 17:08:00,65.3,62.6,30.03,WNW,296,4.0,4.0,91,0.00,,---,0.04,VWS V14.01,2013-02-27 22:08:00,
2013-02-27 17:13:00,65.3,62.6,30.03,WNW,297,0.0,0.0,91,0.00,,---,0.04,VWS V14.01,2013-02-27 22:13:00,
2013-02-27 17:18:00,65.1,62.4,30.03,WNW,302,2.7,2.7,91,0.00,,---,0.04,VWS V14.01,2013-02-27 22:18:00,
2013-02-27 17:23:00,64.9,62.2,30.03,WNW,301,3.1,3.1,91,0.00,,---,0.04,VWS V14.01,2013-02-27 22:23:00,
2013-02-27 17:28:00,64.9,62.6,30.06,NW,305,0.0,0.0,92,0.00,,---,0.04,VWS V14.01,2013-02-27 22:28:00,
2013-02-27 17:33:00,64.9,62.6,30.06,NW,304,0.0,0.0,92,0.00,,---,0.04,VWS V14.01,2013-02-27 22:33:00,
2013-02-27 17:38:00,64.9,62.6,30.03,NW,326,0.0,0.0,92,0.00,,---,0.04,VWS V14.01,2013-02-27 22:38:00,
2013-02-27 17:43:00,64.9,62.6,30.03,NW,326,0.0,0.0,92,0.00,,---,0.04,VWS V14.01,2013-02-27 22:43:00,
2013-02-27 17:48:00,64.9,62.6,30.03,NW,326,0.0,0.0,92,0.00,,---,0.04,VWS V14.01,2013-02-27 22:48:00,
2013-02-27 17:53:00,64.8,62.4,30.03,NW,311,0.0,0.0,92,0.00,,---,0.04,VWS V14.01,2013-02-27 22:53:00,
2013-02-27 17:59:00,64.8,62.4,30.03,WNW,293,0.0,2.2,92,0.00,,---,0.04,VWS V14.01,2013-02-27 22:59:00,
2013-02-27 18:04:00,64.8,62.4,30.03,West,280,2.2,2.2,92,0.00,,---,0.04,VWS V14.01,2013-02-27 23:04:00,
2013-02-27 18:09:00,64.9,62.9,30.06,NNW,327,0.0,0.0,93,0.00,,---,0.04,VWS V14.01,2013-02-27 23:09:00,
2013-02-27 18:14:00,64.8,62.7,30.06,WNW,290,0.0,0.0,93,0.00,,---,0.04,VWS V14.01,2013-02-27 23:14:00,
2013-02-27 18:19:00,64.6,62.5,30.06,NW,321,0.0,0.0,93,0.00,,---,0.04,VWS V14.01,2013-02-27 23:19:00,
2013-02-27 18:24:00,64.8,62.7,30.06,NW,321,0.0,0.0,93,0.00,,---,0.04,VWS V14.01,2013-02-27 23:24:00,
2013-02-27 18:29:00,64.8,62.7,30.06,WNW,292,0.0,0.0,93,0.00,,---,0.04,VWS V14.01,2013-02-27 23:29:00,
2013-02-27 18:34:00,64.6,62.5,30.06,WNW,292,0.0,0.0,93,0.00,,---,0.04,VWS V14.01,2013-02-27 23:34:00,
2013-02-27 18:39:00,64.6,62.5,30.06,NW,307,0.0,0.0,93,0.00,,---,0.04,VWS V14.01,2013-02-27 23:39:00,
2013-02-27 18:44:00,64.6,62.5,30.06,WNW,292,2.7,2.7,93,0.00,,---,0.04,VWS V14.01,2013-02-27 23:44:00,
2013-02-27 18:49:00,64.6,62.5,30.06,NW,310,2.7,2.7,93,0.00,,---,0.04,VWS V14.01,2013-02-27 23:49:00,
2013-02-27 18:54:00,64.6,62.5,30.06,NW,309,3.1,3.1,93,0.00,,---,0.04,VWS V14.01,2013-02-27 23:54:00,
2013-02-27 18:59:00,64.6,62.5,30.06,NNW,327,0.0,0.0,93,0.00,,---,0.04,VWS V14.01,2013-02-27 23:59:00,
2013-02-27 19:05:00,64.6,62.5,30.06,WNW,297,0.0,0.0,93,0.00,,---,0.04,VWS V14.01,2013-02-28 00:05:00,
2013-02-27 19:10:00,64.8,62.7,30.06,NW,307,2.7,2.7,93,0.00,,---,0.04,VWS V14.01,2013-02-28 00:10:00,
2013-02-27 19:15:00,64.8,62.7,30.06,North,349,3.1,3.1,93,0.00,,---,0.04,VWS V14.01,2013-02-28 00:15:00,
2013-02-27 19:20:00,64.8,62.7,30.06,WNW,290,2.7,2.7,93,0.00,,---,0.04,VWS V14.01,2013-02-28 00:20:00,
2013-02-27 19:25:00,64.8,62.7,30.06,NW,307,0.0,0.0,93,0.00,,---,0.04,VWS V14.01,2013-02-28 00:25:00,
2013-02-27 19:30:00,64.8,62.7,30.06,NW,307,0.0,0.0,93,0.00,,---,0.04,VWS V14.01,2013-02-28 00:30:00,
2013-02-27 19:35:00,64.8,62.7,30.06,NW,307,0.0,0.0,93,0.00,,---,0.04,VWS V14.01,2013-02-28 00:35:00,
2013-02-27 19:40:00,64.8,62.7,30.06,NW,307,0.0,0.0,93,0.00,,---,0.04,VWS V14.01,2013-02-28 00:40:00,
2013-02-27 19:45:00,64.9,62.9,30.06,WNW,302,0.0,0.0,93,0.00,,---,0.04,VWS V14.01,2013-02-28 00:45:00,
2013-02-27 19:50:00,64.9,62.9,30.06,WNW,302,0.0,0.0,93,0.00,,---,0.04,VWS V14.01,2013-02-28 00:50:00,
2013-02-27 19:55:00,64.8,62.7,30.06,WNW,296,2.2,2.2,93,0.00,,---,0.04,VWS V14.01,2013-02-28 00:55:00,
2013-02-27 20:00:00,64.8,62.7,30.06,WNW,295,0.0,0.0,93,0.00,,---,0.04,VWS V14.01,2013-02-28 01:00:00,
2013-02-27 20:05:00,64.8,62.7,30.06,WNW,296,0.0,0.0,93,0.04,,---,0.08,VWS V14.01,2013-02-28 01:05:00,
2013-02-27 20:10:00,64.8,62.7,30.06,WNW,282,3.6,4.9,93,0.04,,---,0.08,VWS V14.01,2013-02-28 01:10:00,
2013-02-27 20:16:00,64.8,62.7,30.06,West,267,0.0,0.0,93,0.08,,---,0.12,VWS V14.01,2013-02-28 01:16:00,
2013-02-27 20:21:00,64.6,62.5,30.06,WNW,298,0.0,2.7,93,0.08,,---,0.12,VWS V14.01,2013-02-28 01:21:00,
2013-02-27 20:26:00,64.6,62.5,30.09,NW,304,4.0,4.0,93,0.08,,---,0.12,VWS V14.01,2013-02-28 01:26:00,
2013-02-27 20:31:00,64.4,62.3,30.09,WNW,295,0.0,0.0,93,0.08,,---,0.12,VWS V14.01,2013-02-28 01:31:00,
2013-02-27 20:36:00,64.2,62.5,30.09,WNW,285,3.6,3.6,94,0.08,,---,0.12,VWS V14.01,2013-02-28 01:36:00,
2013-02-27 20:41:00,64.0,62.3,30.09,WNW,303,5.8,5.8,94,0.08,,---,0.12,VWS V14.01,2013-02-28 01:41:00,
2013-02-27 20:46:00,64.0,62.3,30.09,WNW,293,0.0,0.0,94,0.12,,---,0.16,VWS V14.01,2013-02-28 01:46:00,
2013-02-27 20:51:00,64.0,62.3,30.09,WNW,296,0.0,0.0,94,0.12,,---,0.16,VWS V14.01,2013-02-28 01:51:00,
2013-02-27 20:56:00,64.2,62.8,30.09,NW,310,0.0,0.0,95,0.12,,---,0.16,VWS V14.01,2013-02-28 01:56:00,
2013-02-27 21:01:00,64.2,62.8,30.09,WNW,293,0.0,0.0,95,0.12,,---,0.16,VWS V14.01,2013-02-28 02:01:00,
2013-02-27 21:06:00,64.2,62.8,30.09,WNW,293,0.0,0.0,95,0.08,,---,0.16,VWS V14.01,2013-02-28 02:06:00,
2013-02-27 21:11:00,64.2,62.8,30.09,NW,305,2.2,2.2,95,0.08,,---,0.16,VWS V14.01,2013-02-28 02:11:00,
2013-02-27 21:16:00,64.2,62.8,30.09,NW,305,0.0,0.0,95,0.04,,---,0.16,VWS V14.01,2013-02-28 02:16:00,
2013-02-27 21:21:00,64.4,62.9,30.09,WNW,284,2.2,2.2,95,0.04,,---,0.16,VWS V14.01,2013-02-28 02:21:00,
2013-02-27 21:26:00,64.4,62.9,30.06,WNW,284,0.0,0.0,95,0.04,,---,0.16,VWS V14.01,2013-02-28 02:26:00,
2013-02-27 21:31:00,64.2,62.8,30.06,WNW,284,0.0,0.0,95,0.04,,---,0.16,VWS V14.01,2013-02-28 02:31:00,
2013-02-27 21:37:00,64.2,62.8,30.06,WNW,284,0.0,0.0,95,0.08,,---,0.20,VWS V14.01,2013-02-28 02:37:00,
2013-02-27 21:42:00,64.2,62.8,30.06,WSW,251,0.0,0.0,95,0.08,,---,0.20,VWS V14.01,2013-02-28 02:42:00,
2013-02-27 21:47:00,63.9,62.4,30.06,WSW,251,0.0,0.0,95,0.04,,---,0.20,VWS V14.01,2013-02-28 02:47:00,
2013-02-27 21:52:00,63.9,62.4,30.06,WSW,251,0.0,0.0,95,0.04,,---,0.20,VWS V14.01,2013-02-28 02:52:00,
2013-02-27 21:57:00,64.2,62.8,30.06,WSW,251,0.0,0.0,95,0.04,,---,0.20,VWS V14.01,2013-02-28 02:57:00,
2013-02-27 22:02:00,64.2,62.8,30.06,WSW,251,0.0,0.0,95,0.04,,---,0.20,VWS V14.01,2013-02-28 03:02:00,
2013-02-27 22:07:00,64.4,62.9,30.06,WSW,245,0.0,0.0,95,0.04,,---,0.20,VWS V14.01,2013-02-28 03:07:00,
2013-02-27 22:12:00,64.4,62.9,30.06,SSE,159,0.0,0.0,95,0.04,,---,0.20,VWS V14.01,2013-02-28 03:12:00,
2013-02-27 22:17:00,64.4,62.9,30.06,SSE,159,0.0,0.0,95,0.04,,---,0.20,VWS V14.01,2013-02-28 03:17:00,
2013-02-27 22:22:00,64.6,63.1,30.06,SSE,159,0.0,0.0,95,0.04,,---,0.20,VWS V14.01,2013-02-28 03:22:00,
2013-02-27 22:27:00,64.6,63.1,30.06,SSE,159,0.0,0.0,95,0.04,,---,0.20,VWS V14.01,2013-02-28 03:27:00,
2013-02-27 22:32:00,64.6,63.1,30.06,SSE,159,0.0,0.0,95,0.04,,---,0.20,VWS V14.01,2013-02-28 03:32:00,
2013-02-27 22:37:00,64.6,63.1,30.06,WSW,246,0.0,0.0,95,0.00,,---,0.20,VWS V14.01,2013-02-28 03:37:00,
2013-02-27 22:42:00,64.6,63.1,30.06,WSW,250,0.0,0.0,95,0.00,,---,0.20,VWS V14.01,2013-02-28 03:42:00,
2013-02-27 22:47:00,64.6,63.1,30.06,WSW,242,0.0,0.0,95,0.00,,---,0.20,VWS V14.01,2013-02-28 03:47:00,
2013-02-27 22:52:00,64.6,63.1,30.09,WSW,244,0.0,0.0,95,0.00,,---,0.20,VWS V14.01,2013-02-28 03:52:00,
2013-02-27 22:57:00,64.6,63.1,30.09,WSW,243,0.0,2.2,95,0.00,,---,0.20,VWS V14.01,2013-02-28 03:57:00,
2013-02-27 23:02:00,64.6,63.1,30.09,WSW,243,0.0,0.0,95,0.00,,---,0.20,VWS V14.01,2013-02-28 04:02:00,
2013-02-27 23:07:00,64.8,63.3,30.09,West,269,0.0,0.0,95,0.00,,---,0.20,VWS V14.01,2013-02-28 04:07:00,
2013-02-27 23:12:00,64.6,63.1,30.09,WNW,303,2.7,6.3,95,0.00,,---,0.20,VWS V14.01,2013-02-28 04:12:00,
2013-02-27 23:18:00,64.6,63.1,30.09,WNW,302,2.2,2.2,95,0.00,,---,0.20,VWS V14.01,2013-02-28 04:18:00,
2013-02-27 23:23:00,64.8,63.3,30.09,West,278,0.0,0.0,95,0.00,,---,0.20,VWS V14.01,2013-02-28 04:23:00,
2013-02-27 23:28:00,64.8,63.3,30.09,WNW,287,0.0,4.5,95,0.00,,---,0.20,VWS V14.01,2013-02-28 04:28:00,
2013-02-27 23:33:00,64.8,63.3,30.09,NW,308,0.0,2.7,95,0.00,,---,0.20,VWS V14.01,2013-02-28 04:33:00,
2013-02-27 23:38:00,64.6,63.1,30.09,WNW,293,0.0,0.0,95,0.00,,---,0.20,VWS V14.01,2013-02-28 04:38:00,
2013-02-27 23:43:00,64.4,62.9,30.09,WNW,287,0.0,0.0,95,0.00,,---,0.20,VWS V14.01,2013-02-28 04:43:00,
2013-02-27 23:48:00,64.4,62.9,30.09,West,281,0.0,0.0,95,0.00,,---,0.20,VWS V14.01,2013-02-28 04:48:00,
2013-02-27 23:53:00,64.4,62.9,30.06,WNW,282,0.0,0.0,95,0.00,,---,0.20,VWS V14.01,2013-02-28 04:53:00,
2013-02-27 23:58:00,64.4,62.9,30.06,NW,318,0.0,0.0,95,0.00,,---,0.20,VWS V14.01,2013-02-28 04:58:00,